Terminal Aerodrome Forecast
Issued by NWS Sterling, VA

Home | Current Version | Previous Version | Text Only | Print | Product List | Glossary On
Versions: 1 2 3 4 5 6 7 8 9 10 11 12 13 14 15
876
FTUS41 KLWX 130535
TAFCHO
TAF
KCHO 130535Z 1306/1406 29008KT P6SM BKN045
     FM130900 31012G20KT P6SM SCT030 BKN045
     FM131200 31012G23KT P6SM FEW030 SCT045
     FM140300 30007KT P6SM SKC=

USA.gov is the U.S. government's official web portal to all federal, state and local government web resources and services.